Terminal Aerodrome Forecast
Issued by NWS

Home | Current Version | Previous Version | Text Only | Print | Product List | Glossary On
Versions: 1 2 3 4 5 6 7 8 9 10 11 12 13 14 15 16 17 18
533
FTUS46 KMTR 302343
TAFSNS
TAF
KSNS 302343Z 0100/0124 27015KT P6SM SKC
     FM010600 27008KT P6SM SCT008
     FM010800 27006KT P6SM OVC006
     FM011630 28005KT P6SM SCT010
     FM011800 28012KT P6SM SKC=

USA.gov is the U.S. government's official web portal to all federal, state and local government web resources and services.